Latest Weather Observations for Townsville - Fanning River (Defence)

IDQ60801

Issued at 10:22 am EST Thursday 21 June 2018 (issued every 10 minutes, with the page automatically refreshed every 10 minutes)

About weather observations | Map of weather stations | Latest weather observations for QLD | Other Formats
Station Details ID: 033328 Name: TOWNSVILLE- FANNING RIVER (DEFENCE) Lat: -19.78 Lon: 146.50 Height: 325.83 m
Data from the previous 72 hours. | See also: Recent months at Townsville - Fanning River (Defence)
Date/Time
EST
Temp
°C
App
Temp
°C
Dew
Point
°C
Rel
Hum
%
Delta-T
°C
Wind Press
QNH
hPa
Press
MSL
hPa
Rain since
9am
mm
Dir  Spd
km/h
Gust
km/h
Spd
kts
Gust
kts
21/10:00am 18.0 16.2 8.0 52 5.2 ESE 7 13 4 7 1022.9 1021.9 0.0
21/09:30am 17.2 15.5 8.4 56 4.6 E 7 13 4 7 1023.0 1022.0 0.0
21/09:00am 15.9 14.7 8.2 60 3.9 ENE 4 7 2 4 1023.0 1022.0 0.0
21/08:30am 13.9 13.5 8.3 69 2.8 CALM 0 0 0 0 1023.0 1022.0 0.0
21/08:00am 10.7 10.1 7.4 80 1.6 CALM 0 0 0 0 1022.7 1021.7 0.0
21/07:30am 7.8 7.0 6.6 92 0.6 CALM 0 0 0 0 1022.3 1021.3 0.0
21/07:00am 7.8 7.0 6.7 93 0.5 CALM 0 0 0 0 1021.8 1020.8 0.0
21/06:30am 7.8 7.0 6.4 91 0.7 CALM 0 0 0 0 1021.6 1020.6 0.0
21/06:00am 8.7 7.3 7.2 90 0.7 ESE 4 4 2 2 1021.1 1020.2 0.0
21/05:30am 8.1 6.6 6.6 90 0.7 ESE 4 6 2 3 1020.8 1019.8 0.0
21/05:00am 9.4 7.6 7.2 86 1.1 SE 6 7 3 4 1020.6 1019.6 0.0
21/04:30am 9.3 7.6 7.7 90 0.8 ESE 6 6 3 3 1020.6 1019.6 0.0
21/04:00am 8.0 6.6 7.4 96 0.3 ESE 4 6 2 3 1020.5 1019.5 0.0
21/03:30am 6.7 4.5 5.5 92 0.5 SE 6 6 3 3 1020.8 1019.8 0.0
21/03:00am 8.1 6.0 5.6 84 1.1 ESE 6 11 3 6 1020.9 1019.9 0.0
21/02:30am 11.2 10.8 8.1 81 1.5 CALM 0 0 0 0 1021.0 1020.0 0.0
21/02:00am 10.7 10.2 7.8 82 1.4 CALM 0 0 0 0 1021.4 1020.5 0.0
21/01:30am 10.6 9.7 7.7 82 1.4 ESE 2 4 1 2 1021.8 1020.8 0.0
21/01:00am 10.8 10.3 7.7 81 1.5 CALM 0 0 0 0 1022.1 1021.1 0.0
21/12:30am 10.9 10.0 7.8 81 1.5 ESE 2 4 1 2 1021.9 1020.9 0.0
21/12:00am 10.7 9.5 7.9 83 1.4 ESE 4 4 2 2 1021.7 1020.7 0.0
 
Date/Time
EST
Temp
°C
App
Temp
°C
Dew
Point
°C
Rel
Hum
%
Delta-T
°C
Wind Press
QNH
hPa
Press
MSL
hPa
Rain since
9am
mm
Dir  Spd
km/h
Gust
km/h
Spd
kts
Gust
kts
20/11:30pm 11.0 9.8 8.2 83 1.4 ESE 4 6 2 3 1021.9 1020.9 0.0
20/11:00pm 11.7 11.3 8.2 79 1.7 CALM 0 0 0 0 1021.8 1020.8 0.0
20/10:30pm 11.4 10.7 6.9 74 2.2 CALM 0 0 0 0 1021.8 1020.8 0.0
20/10:00pm 10.8 9.9 6.0 72 2.3 CALM 0 2 0 1 1021.8 1020.8 0.0
20/09:30pm 11.8 10.2 6.3 69 2.6 SE 4 6 2 3 1021.7 1020.7 0.0
20/09:00pm 11.1 9.2 4.8 65 2.9 SE 4 4 2 2 1021.8 1020.8 0.0
20/08:30pm 12.3 10.0 4.8 60 3.5 SE 6 6 3 3 1021.7 1020.7 0.0
20/08:00pm 13.8 12.3 5.2 56 4.1 ESE 2 6 1 3 1021.4 1020.5 0.0
20/07:30pm 13.9 11.7 3.4 49 4.8 ESE 4 6 2 3 1021.2 1020.3 0.0
20/07:00pm 14.5 12.0 -0.8 35 6.4 E 2 4 1 2 1020.9 1019.9 0.0
20/06:30pm 15.2 12.2 -1.8 31 7.0 E 4 6 2 3 1020.6 1019.6 0.0
20/06:00pm 16.3 13.3 -2.2 28 7.7 E 4 6 2 3 1020.4 1019.4 0.0
20/05:30pm 18.5 15.4 -2.4 24 8.8 E 4 6 2 3 1020.3 1019.3 0.0
20/05:00pm 20.6 17.1 -3.1 20 10.0 E 6 9 3 5 1020.0 1019.0 0.0
20/04:30pm 21.6 17.8 -3.7 18 10.7 ESE 7 11 4 6 1019.8 1018.8 0.0
20/04:00pm 22.3 18.7 -3.9 17 11.1 E 6 7 3 4 1019.8 1018.8 0.0
20/03:30pm 22.1 18.2 -4.9 16 11.2 E 7 13 4 7 1019.9 1018.9 0.0
20/03:00pm 22.4 18.8 -3.8 17 11.1 E 6 13 3 7 1019.7 1018.7 0.0
20/02:30pm 22.1 17.8 -4.9 16 11.2 ENE 9 15 5 8 1019.8 1018.8 0.0
20/02:00pm 22.7 19.1 -3.6 17 11.2 E 6 13 3 7 1020.0 1019.0 0.0
20/01:30pm 22.3 18.7 -2.4 19 10.8 ESE 7 15 4 8 1020.4 1019.4 0.0
20/01:00pm 21.4 17.4 -2.5 20 10.3 NE 9 19 5 10 1020.7 1019.7 0.0
20/12:30pm 21.2 17.4 -4.0 18 10.6 E 7 17 4 9 1021.2 1020.3 0.0
20/12:00pm 20.7 16.1 -3.7 19 10.2 ESE 11 19 6 10 1021.8 1020.8 0.0
20/11:30am 20.0 15.4 -4.3 19 10.0 E 11 20 6 11 1022.3 1021.3 0.0
20/11:00am 19.3 13.9 -4.9 19 9.7 ESE 15 22 8 12 1022.7 1021.7 0.0
20/10:30am 18.6 15.1 -1.3 26 8.6 ESE 7 15 4 8 1023.1 1022.1 0.0
20/10:00am 17.6 14.4 -0.2 30 7.8 SE 6 11 3 6 1023.4 1022.4 0.0
20/09:30am 16.3 14.2 1.6 37 6.6 E 2 7 1 4 1023.5 1022.5 0.0
20/09:00am 13.3 11.3 -0.3 39 5.7 CALM 0 0 0 0 1023.7 1022.8 0.0
20/08:30am 10.8 8.5 -2.2 40 5.1 CALM 0 0 0 0 1023.5 1022.5 0.0
20/08:00am 8.6 6.4 -1.8 48 4.0 CALM 0 0 0 0 1023.2 1022.2 0.0
20/07:30am 6.0 4.0 0.1 66 2.3 CALM 0 2 0 1 1022.9 1021.9 0.0
20/07:00am 4.9 2.6 -2.4 59 2.7 CALM 0 0 0 0 1022.7 1021.7 0.0
20/06:30am 4.9 1.8 -2.4 59 2.7 W 4 6 2 3 1022.5 1021.5 0.0
20/06:00am 5.0 2.7 -2.6 58 2.8 CALM 0 0 0 0 1022.2 1021.2 0.0
20/05:30am 5.5 2.3 -3.1 54 3.1 W 4 6 2 3 1022.0 1021.0 0.0
20/05:00am 6.8 4.4 -2.9 50 3.6 CALM 0 0 0 0 1021.9 1020.9 0.0
20/04:30am 5.5 3.1 -3.1 54 3.1 CALM 0 0 0 0 1021.9 1020.9 0.0
20/04:00am 6.1 3.6 -3.8 49 3.5 CALM 0 0 0 0 1021.7 1020.7 0.0
20/03:30am 7.0 3.8 -3.5 47 3.8 W 4 4 2 2 1021.8 1020.8 0.0
20/03:00am 6.8 3.2 -4.0 46 3.9 W 6 6 3 3 1021.7 1020.7 0.0
20/02:30am 8.4 5.5 -0.9 52 3.7 SE 4 4 2 2 1021.6 1020.6 0.0
20/02:00am 8.4 5.2 -3.7 42 4.4 SE 4 6 2 3 1021.6 1020.6 0.0
20/01:30am 9.8 7.3 -4.2 37 5.2 CALM 0 0 0 0 1021.7 1020.7 0.0
20/01:00am 8.6 6.0 -4.9 38 4.8 CALM 0 0 0 0 1021.8 1020.8 0.0
20/12:30am 9.8 7.2 -5.3 34 5.5 CALM 0 0 0 0 1021.8 1020.8 0.0
20/12:00am 9.5 6.8 -5.6 34 5.4 CALM 0 0 0 0 1022.1 1021.1 0.0
 
Date/Time
EST
Temp
°C
App
Temp
°C
Dew
Point
°C
Rel
Hum
%
Delta-T
°C
Wind Press
QNH
hPa
Press
MSL
hPa
Rain since
9am
mm
Dir  Spd
km/h
Gust
km/h
Spd
kts
Gust
kts
19/11:30pm 10.6 8.0 -5.0 33 5.7 CALM 0 2 0 1 1022.2 1021.2 0.0
19/11:00pm 10.6 7.2 -5.4 32 5.8 SE 4 4 2 2 1022.4 1021.4 0.0
19/10:30pm 11.1 8.1 -4.9 32 5.9 SE 2 4 1 2 1022.5 1021.5 0.0
19/10:00pm 9.8 7.2 -4.9 35 5.3 CALM 0 0 0 0 1022.4 1021.4 0.0
19/09:30pm 10.0 7.4 -5.1 34 5.5 CALM 0 2 0 1 1022.3 1021.3 0.0
19/09:00pm 11.9 9.3 -5.1 30 6.3 CALM 0 0 0 0 1022.2 1021.2 0.0
19/08:30pm 11.3 8.6 -5.6 30 6.2 CALM 0 0 0 0 1022.0 1021.0 0.0
19/08:00pm 10.7 7.7 -4.9 33 5.7 ENE 2 7 1 4 1021.8 1020.8 0.0
19/07:30pm 13.5 9.7 -5.6 26 7.2 SSE 6 9 3 5 1021.3 1020.4 0.0
19/07:00pm 15.2 11.4 -5.8 23 8.0 SSE 6 9 3 5 1021.1 1020.2 0.0
19/06:30pm 15.6 12.5 -6.6 21 8.3 S 2 6 1 3 1021.1 1020.2 0.0
19/06:00pm 16.0 12.4 -6.9 20 8.5 SSE 4 7 2 4 1020.7 1019.7 0.0
19/05:30pm 18.0 14.5 -5.9 19 9.3 SSE 4 9 2 5 1020.4 1019.4 0.0
19/05:00pm 20.1 16.3 -5.7 17 10.3 SSE 6 11 3 6 1020.2 1019.2 0.0
19/04:30pm 21.0 16.4 -7.5 14 11.1 SSE 9 15 5 8 1020.1 1019.1 0.0
19/04:00pm 21.6 17.5 -7.0 14 11.3 SSE 7 13 4 7 1019.9 1018.9 0.0
19/03:30pm 21.6 17.0 -8.0 13 11.5 SE 9 17 5 9 1019.9 1018.9 0.0
19/03:00pm 21.7 16.9 -10.0 11 11.8 SE 9 13 5 7 1020.0 1019.0 0.0
19/02:30pm 21.4 17.0 -10.2 11 11.8 SE 7 15 4 8 1020.1 1019.1 0.0
19/02:00pm 21.7 17.8 -6.9 14 11.4 SSE 6 13 3 7 1020.5 1019.5 0.0
19/01:30pm 20.5 16.0 -7.0 15 10.8 S 9 17 5 9 1020.9 1019.9 0.0
19/01:00pm 20.2 15.8 -5.6 17 10.3 SE 9 19 5 10 1021.3 1020.4 0.0
19/12:30pm 19.2 14.8 -5.7 18 9.9 S 9 17 5 9 1022.1 1021.1 0.0
19/12:00pm 18.6 14.2 -5.4 19 9.5 SSE 9 15 5 8 1022.5 1021.5 0.0
19/11:30am 17.8 13.8 -5.4 20 9.1 SSW 7 17 4 9 1023.0 1022.0 0.0
19/11:00am 17.5 13.6 -4.4 22 8.7 SE 7 17 4 9 1023.4 1022.4 0.0
19/10:30am 16.1 11.5 -4.4 24 8.1 SE 11 19 6 10 1023.7 1022.8 0.0
19/10:00am 14.6 10.7 -4.7 26 7.4 SSE 7 17 4 9 1023.8 1022.9 0.0
19/09:30am 13.7 10.0 -4.5 28 7.0 SE 6 9 3 5 1023.9 1023.0 0.0
19/09:00am 12.2 8.2 -5.3 29 6.5 SE 7 11 4 6 1024.0 1023.1 0.0
19/08:30am 11.6 7.5 -6.3 28 6.5 SSE 7 15 4 8 1023.9 1023.0 0.0
19/08:00am 11.0 7.6 -5.5 31 6.0 SE 4 7 2 4 1023.8 1022.9 0.0
19/07:30am 6.5 3.6 -4.0 47 3.8 ENE 2 6 1 3 1023.6 1022.6 0.0
19/07:00am 4.3 1.6 -5.5 49 3.3 CALM 0 2 0 1 1023.2 1022.2 0.0
19/06:30am 5.1 2.1 -5.5 46 3.6 ESE 2 11 1 6 1023.0 1022.0 0.0
19/06:00am 4.2 1.1 -6.1 47 3.4 NNE 2 6 1 3 1022.5 1021.5 0.0
19/05:30am 6.3 3.2 -6.3 40 4.2 SSE 2 7 1 4 1022.2 1021.2 0.0
19/05:00am 6.0 2.5 -5.9 42 4.0 SE 4 9 2 5 1022.0 1021.0 0.0
19/04:30am 5.2 1.7 -6.3 43 3.8 NE 4 6 2 3 1022.1 1021.1 0.0
19/04:23am 5.6 2.5 -6.3 42 4.0 E 2 6 1 3 1022.0 1021.0 0.0
19/04:00am 10.6 6.6 -7.6 27 6.3 SSE 6 11 3 6 1021.9 1020.9 0.0
19/03:30am 11.0 7.0 -7.7 26 6.5 SSE 6 15 3 8 1022.0 1021.0 0.0
19/03:00am 11.1 7.1 -7.7 26 6.5 SSE 6 13 3 7 1022.1 1021.1 0.0
19/02:30am 11.3 6.8 -7.0 27 6.5 SSE 9 22 5 12 1022.1 1021.1 0.0
19/02:00am 11.6 7.0 -7.7 25 6.7 SSE 9 17 5 9 1022.1 1021.1 0.0
19/01:30am 12.2 6.9 -7.7 24 7.0 S 13 22 7 12 1022.3 1021.3 0.0
19/01:00am 12.6 8.1 -6.9 25 7.0 SSE 9 19 5 10 1022.6 1021.6 0.0
19/12:30am 11.4 7.4 -7.4 26 6.6 SE 6 11 3 6 1022.6 1021.6 0.0
19/12:00am 13.1 8.2 -7.0 24 7.2 S 11 19 6 10 1022.6 1021.6 0.0
 
Date/Time
EST
Temp
°C
App
Temp
°C
Dew
Point
°C
Rel
Hum
%
Delta-T
°C
Wind Press
QNH
hPa
Press
MSL
hPa
Rain since
9am
mm
Dir  Spd
km/h
Gust
km/h
Spd
kts
Gust
kts
18/11:30pm 11.3 7.8 -6.1 29 6.3 SSE 4 11 2 6 1022.6 1021.6 0.0
18/11:00pm 11.3 7.9 -5.6 30 6.1 S 4 7 2 4 1022.7 1021.7 0.0
18/10:30pm 12.4 8.6 -5.1 29 6.5 S 6 11 3 6 1022.7 1021.7 0.0
18/10:00pm 12.5 9.5 -5.0 29 6.5 S 2 7 1 4 1022.8 1021.8 0.0
18/09:30pm 12.7 9.4 -4.0 31 6.4 SE 4 7 2 4 1022.6 1021.6 0.0
18/09:00pm 12.8 10.3 -3.9 31 6.4 CALM 0 2 0 1 1022.3 1021.3 0.0
18/08:30pm 16.4 13.0 -5.3 22 8.4 SW 4 11 2 6 1022.0 1021.0 0.0
18/08:00pm 16.3 12.9 -5.4 22 8.4 SW 4 9 2 5 1021.6 1020.6 0.0
18/07:30pm 16.8 13.5 -4.4 23 8.4 SSW 4 9 2 5 1021.1 1020.2 0.0
18/07:00pm 17.3 13.0 -4.6 22 8.7 SW 9 19 5 10 1021.0 1020.0 0.0
18/06:30pm 17.5 13.7 -3.8 23 8.7 SSW 7 13 4 7 1020.5 1019.5 0.0
18/06:00pm 17.4 14.9 -3.9 23 8.6 CALM 0 4 0 2 1020.1 1019.1 0.0
18/05:30pm 18.8 15.0 -4.0 21 9.3 SSE 7 13 4 7 1019.7 1018.7 0.0
18/05:00pm 20.2 16.1 -3.4 20 9.9 SSE 9 19 5 10 1019.3 1018.3 0.0
18/04:30pm 21.1 17.6 -2.7 20 10.2 SSE 6 13 3 7 1019.1 1018.1 0.0
18/04:00pm 21.5 17.8 -3.1 19 10.5 S 7 15 4 8 1019.2 1018.2 0.0
18/03:30pm 21.7 17.9 -3.6 18 10.7 SSW 7 17 4 9 1019.2 1018.2 0.0
18/03:00pm 21.5 17.7 -3.8 18 10.7 SW 7 13 4 7 1019.2 1018.2 0.0
18/02:30pm 22.0 17.9 -2.7 19 10.7 SW 9 19 5 10 1019.4 1018.4 0.0
18/02:00pm 20.7 16.2 -3.0 20 10.1 S 11 26 6 14 1019.7 1018.7 0.0
18/01:30pm 21.3 17.3 -1.9 21 10.2 SSE 9 19 5 10 1020.1 1019.1 0.0
18/01:00pm 20.6 16.6 -2.5 21 9.9 S 9 17 5 9 1020.5 1019.5 0.0
18/12:30pm 20.2 16.2 -2.2 22 9.7 SSE 9 20 5 11 1021.2 1020.3 0.0
18/12:00pm 19.2 15.6 -2.4 23 9.2 SSE 7 20 4 11 1021.8 1020.8 0.0
18/11:30am 19.0 14.7 -2.0 24 9.0 S 11 19 6 10 1022.1 1021.1 0.0
18/11:00am 18.3 14.3 -2.0 25 8.6 SSE 9 28 5 15 1022.5 1021.5 0.0
18/10:30am 17.6 13.7 -1.6 27 8.2 SSW 9 17 5 9 1022.9 1021.9 0.0

Other Formats:

Comma delimited format used in spreadsheet applications
http://www.bom.gov.au/fwo/IDQ60801/IDQ60801.94273.axf

JavaScript Object Notation format (JSON) in row-major order
http://www.bom.gov.au/fwo/IDQ60801/IDQ60801.94273.json